Waterfront 5k 2019-20 - Event 15

Tuesday, January 28, 2020 17:47 (GMT+13) - Preliminary results

Race info
Sport: Running
Location: Wellington, New Zealand
Start type: Mass start
Racers: 267
Timed on: iPad
Timed with: Webscorer PRO 4.2
Chip timing: RFID - LLRP
RFID reader: Radiant
Updated: Wednesday, January 29, 2020 09:15 (GMT+13)
Race notes
All data entry done for new runners from tonight - another huge turn out with 262 runners and walker -with another 48 new runners tonight
Show more Show less

Contact organizer

Use this form to send an email to the organizer.

Your name
Your email address
Confirm email address
Message to organizer
Send

  • 5km Run - Overall
Place Bib Racer name Affiliation Category Gender Finish time
1876Bert PrendergastJohnsonville M20-29M 15:46.5--100%38.30%36.91%
2150Ben TwymanCrofton Downs M20-29M 15:49.4+0:02.9+0.31%99.69%38.11%36.72%
3885Jaspar OrtfeldNgaio M10-19M 16:37.0+0:50.5+5.34%94.93%35.00%33.54%
448Walter SomervilleMount Victoria M30-39M 17:44.7+1:58.2+12.49%88.90%30.59%29.03%
5264Dion YiwHataitai M30-39M 17:49.6+2:03.1+13.01%88.49%30.27%28.70%
6590Charles WiseThorndon M20-29M 17:57.4+2:10.9+13.83%87.85%29.76%28.18%
7910Axel TieKarori M30-39M 17:58.7+2:12.2+13.97%87.74%29.68%28.10%
8225Bevan CoxHataitai M10-19M 17:58.9+2:12.4+13.99%87.73%29.67%28.08%
9571Bram Parmentierte Aro M20-29M 18:05.4+2:18.9+14.68%87.20%29.24%27.65%
10385Paul BarwickMiramar M40-49M 18:12.8+2:26.3+15.46%86.61%28.76%27.16%
1114James Gowerseatoun M40-49M 18:31.9+2:45.4+17.47%85.12%27.51%25.88%
12870Mike CousinsNormandale M40-49M 18:35.5+2:49.0+17.86%84.85%27.28%25.64%
13443JOHN CREWEIsland Bay M20-29M 18:36.2+2:49.7+17.93%84.80%27.23%25.60%
14856George WhitworthWellington M30-39M 18:46.7+3:00.2+19.04%84.01%26.55%24.90%
15666Annie BondNewtown F30-39F 18:52.2+3:05.7+19.62%83.60%26.19%24.53%
16584Matthew CryerKarori M30-39M 18:54.1+3:07.6+19.82%83.46%26.07%24.40%
17358Hartley Malcolm-StevensBrooklyn M30-39M 18:59.0+3:12.5+20.34%83.10%25.75%24.08%
18356Richard ClaesKelburn M30-39M 19:13.1+3:26.6+21.83%82.08%24.83%23.14%
19871Harry PolandKelburn M20-29M 19:15.8+3:29.3+22.11%81.89%24.65%22.96%
20254Nick PerryKarori M40-49M 19:21.9+3:35.4+22.76%81.46%24.25%22.55%
21815Lorcan ByrneM20-29M 19:23.9+3:37.4+22.97%81.32%24.12%22.42%
22893Giles PearsonThorndon M50-59M 19:28.1+3:41.6+23.41%81.03%23.85%22.14%
23912Will CritchlowKelburn M30-39M 19:31.0+3:44.5+23.72%80.83%23.66%21.94%
24193Sophie DicksonKarori F30-39F 19:33.0+3:46.5+23.93%80.69%23.53%21.81%
25248Neil LynchOriedntal Bay M30-39M 19:36.6+3:50.1+24.31%80.44%23.30%21.57%
26147Jonathon JacksonWellington M20-29M 19:43.4+3:56.9+25.03%79.98%22.85%21.12%
27182Alex BroughWellington M-unknownM 19:47.6+4:01.1+25.47%79.70%22.58%20.84%
28676Phil WallPorirua M50-59M 19:51.3+4:04.8+25.86%79.45%22.34%20.59%
2926Andreas StockingerHataitai M20-29M 19:53.1+4:06.6+26.05%79.33%22.22%20.47%
30239Matthew WilsonWellington Central M30-39M 19:53.3+4:06.8+26.08%79.32%22.21%20.46%
311406Bill WangM-unknownM 19:54.5+4:08.0+26.20%79.24%22.13%20.38%
32318Matt VeldeKingston M40-49M 19:57.1+4:10.6+26.48%79.07%21.96%20.20%
33869Bridget KiddleKarori F20-29F 19:57.7+4:11.2+26.54%79.03%21.92%20.16%
3449Brendan HaileHataitai M30-39M 19:58.9+4:12.4+26.67%78.95%21.84%20.08%
356Jamie Te Hiwite Aro M40-49M 19:59.4+4:12.9+26.72%78.91%21.81%20.05%
36231Wayne PatrickHighbury M40-49M 19:59.5+4:13.0+26.73%78.91%21.80%20.04%
37536Nicola HankinsonNewlands F40-49F 20:03.0+4:16.5+27.10%78.68%21.58%19.81%
38820Hooman BahreiniMelrose M30-39M 20:06.2+4:19.7+27.44%78.47%21.37%19.60%
39610Harry BarnesTawa M30-39M 20:08.0+4:21.5+27.63%78.35%21.25%19.48%
402000Pacer 20 minutesF/M00-09F/M 20:08.2+4:21.7+27.65%78.34%21.24%19.46%
41731Mal VirideWellington M-unknownM 20:08.6+4:22.1+27.69%78.31%21.21%19.44%
4224Bex HutchinsonMount Victoria F20-29F 20:16.6+4:30.1+28.54%77.80%20.69%18.90%
43879Denny Adamson BarklaHataitai M20-29M 20:19.0+4:32.5+28.79%77.65%20.53%18.74%
4456Alistair CollowMount Victoria M20-29M 20:35.9+4:49.4+30.58%76.58%19.43%17.62%
45186Claudia HarrisonHataitai F30-39F 20:43.1+4:56.6+31.34%76.14%18.96%17.14%
46482Isaac Moffat-YoungWellington M20-29M 20:43.9+4:57.4+31.42%76.09%18.91%17.08%
47289Ronan McIlvennyNewtown M20-29M 21:04.2+5:17.7+33.57%74.87%17.59%15.73%
48728Tawhai MossEpuni M-unknownM 21:05.3+5:18.8+33.68%74.80%17.51%15.66%
49582Rutger MaasdamNgaio M20-29M 21:13.3+5:26.8+34.53%74.33%16.99%15.12%
50581Iain ShawNgaio M30-39M 21:14.4+5:27.9+34.64%74.27%16.92%15.05%
5163Karl JacksonSouthgate M30-39M 21:19.0+5:32.5+35.13%74.00%16.62%14.74%
52364Simon TemplemanNgaio M30-39M 21:20.0+5:33.5+35.24%73.95%16.56%14.68%
53891Jemma ClarryBury St Edmunds F20-29F 21:24.5+5:38.0+35.71%73.69%16.26%14.38%
54909Phelim O'LearyHataitai M20-29M 21:24.9+5:38.4+35.75%73.66%16.24%14.35%
55404Kasey MacKinnonMount Cook F20-29F 21:40.9+5:54.4+37.44%72.76%15.19%13.28%
56863Roy McKeeThorndon M20-29M 21:43.0+5:56.5+37.67%72.64%15.06%13.14%
57454Ben DaviesWellington M20-29M 21:43.5+5:57.0+37.72%72.61%15.02%13.11%
58101Jarred CampbellWellington M20-29M 21:59.0+6:12.5+39.36%71.76%14.01%12.08%
59347Joel MacManusNewtown M20-29M 21:59.6+6:13.1+39.42%71.73%13.97%12.04%
6078Antony PaltridgeWellington Central M50-59M 22:02.1+6:15.6+39.68%71.59%13.81%11.87%
61297Jordan CollinsMornington M30-39M 22:02.2+6:15.7+39.69%71.59%13.80%11.87%
62802Marseille BowieWellington F10-19F 22:03.3+6:16.8+39.81%71.53%13.73%11.79%
63184Ben Currante Aro M20-29M 22:04.5+6:18.0+39.94%71.46%13.65%11.71%
64670Betty HarpHataitai F50-59F 22:06.4+6:19.9+40.14%71.36%13.53%11.59%
65821Tom RobinsonBerhampore M20-29M 22:06.9+6:20.4+40.19%71.33%13.50%11.55%
66719Sam GwynnMelrose M30-39M 22:07.1+6:20.6+40.21%71.32%13.49%11.54%
67203Timon WalkeyWellington M30-39M 22:09.4+6:22.9+40.45%71.20%13.34%11.39%
68825Susan ClareHataitai F40-49F 22:14.5+6:28.0+40.99%70.93%13.00%11.05%
6957Simon BidwellMount Cook M40-49M 22:16.1+6:29.6+41.16%70.84%12.90%10.94%
70346Lesa DavidsonHataitai F40-49F 22:21.8+6:35.3+41.76%70.54%12.53%10.56%
71622James TurnerHighbury M50-59M 22:25.5+6:39.0+42.16%70.35%12.29%10.31%
722230Pacer 22 minutes, 30 secondsF/M00-09F/M 22:26.6+6:40.1+42.27%70.29%12.21%10.24%
73901Jennifer MattlinKarori F30-39F 22:32.3+6:45.8+42.87%69.99%11.84%9.86%
74278Ben MorrowMount Victoria M20-29M 22:33.6+6:47.1+43.01%69.92%11.76%9.77%
75411Micael ArcherWellington M30-39M 22:50.7+7:04.2+44.82%69.05%10.64%8.63%
76579Sam TurnerMount Cook M30-39M 22:51.4+7:04.9+44.89%69.02%10.60%8.59%
77805Robert PattersonWellington M20-29M 22:51.5+7:05.0+44.90%69.01%10.59%8.58%
782Chris JamesHataitai M30-39M 22:53.9+7:07.4+45.16%68.89%10.43%8.42%
7933Sarah FountainKhandallah F30-39F 22:54.0+7:07.5+45.17%68.89%10.43%8.41%
79104Clare McKinlayVogeltown F30-39F 22:54.0+7:07.5+45.17%68.89%10.43%8.41%
81781Janette LandersWellington F30-39F 22:57.2+7:10.7+45.50%68.73%10.22%8.20%
82305Ming Shang NgWellington M20-29M 22:58.8+7:12.3+45.67%68.65%10.12%8.09%
8362James Kimte Aro M20-29M 22:59.4+7:12.9+45.74%68.62%10.08%8.05%
84860Kayvan BahreiniM30-39M 22:59.6+7:13.1+45.76%68.61%10.06%8.04%
8567Sophie CostelloMount Victoria F20-29F 23:01.3+7:14.8+45.94%68.52%9.95%7.93%
8636Fred MwilaTawa M50-59M 23:04.5+7:18.0+46.28%68.36%9.74%7.71%
8758Michael O'Connorte Aro M30-39M 23:08.8+7:22.3+46.73%68.15%9.46%7.43%
87365Lucy LawlorParaparaumu F30-39F 23:08.8+7:22.3+46.73%68.15%9.46%7.43%
89144Stephen BakerKhandallah M40-49M 23:13.0+7:26.5+47.17%67.95%9.19%7.15%
9013Sebastien BrachetWellington M30-39M 23:15.4+7:28.9+47.43%67.83%9.03%6.99%
91674Theo WallPorirua M00-09M 23:15.5+7:29.0+47.44%67.83%9.03%6.98%
9264Kristina CameronParaparaumu F30-39F 23:17.9+7:31.4+47.69%67.71%8.87%6.82%
93658Danny EyreKingston M30-39M 23:22.2+7:35.7+48.15%67.50%8.59%6.53%
94775Toby Aikman-NordonWellington M10-19M 23:36.4+7:49.9+49.65%66.82%7.66%5.59%
95849Mark HerridgeNewtown M30-39M 23:39.0+7:52.5+49.92%66.70%7.49%5.41%
96841Elisha PriceWellington F20-29F 23:42.0+7:55.5+50.24%66.56%7.30%5.21%
97852Hamish McCawHataitai M50-59M 23:46.8+8:00.3+50.74%66.34%6.99%4.89%
9846Amanda ChenAro Valley F20-29F 23:48.0+8:01.5+50.87%66.28%6.91%4.81%
99448David RileyKhandallah M30-39M 23:50.1+8:03.6+51.09%66.18%6.77%4.67%
100470Chris BaldasIsland Bay M30-39M 23:53.7+8:07.2+51.47%66.02%6.54%4.43%
10137Aaron GillKarori M40-49M 23:59.7+8:13.2+52.11%65.74%6.14%4.03%
102244Gemma GouldMount Cook F30-39F 23:59.9+8:13.4+52.13%65.73%6.13%4.02%
103889Katie BudgenKelburn F20-29F 24:00.3+8:13.8+52.17%65.72%6.11%3.99%
104282Matt StansfieldThorndon M20-29M 24:05.3+8:18.8+52.70%65.49%5.78%3.66%
105851Jason LiThorndon M20-29M 24:05.8+8:19.3+52.75%65.47%5.75%3.63%
106229Aine O'DeaNewtown F20-29F 24:12.6+8:26.1+53.47%65.16%5.30%3.17%
1072344Jason Chengte Aro M30-39M 24:13.3+8:26.8+53.54%65.13%5.26%3.13%
108868Louis BarnettHataitai M10-19M 24:13.8+8:27.3+53.60%65.11%5.23%3.09%
109875Samuel PollockHataitai M10-19M 24:15.1+8:28.6+53.73%65.05%5.14%3.01%
110447Aoife Ni DheaNewtown F20-29F 24:18.1+8:31.6+54.05%64.91%4.95%2.81%
11122Frank ColeBrooklyn M50-59M 24:18.8+8:32.3+54.13%64.88%4.90%2.76%
11279Matt ColesKelburn M50-59M 24:19.0+8:32.5+54.15%64.87%4.89%2.75%
113896Maree CarsonWellington F30-39F 24:19.6+8:33.1+54.21%64.85%4.85%2.71%
1142384Brent Golderte Aro M30-39M 24:22.7+8:36.2+54.54%64.71%4.65%2.50%
115240Jurgen BurgerM20-29M 24:30.1+8:43.6+55.32%64.38%4.16%2.01%
11668Chris LeeM30-39M 24:34.2+8:47.7+55.75%64.20%3.90%1.73%
117440Luca SansonBrooklyn M10-19M 24:34.3+8:47.8+55.76%64.20%3.89%1.73%
11884Tim BaileyNewtown M30-39M 24:36.1+8:49.6+55.95%64.12%3.77%1.61%
119695Lauren EllisMount Cook F20-29F 24:36.7+8:50.2+56.02%64.10%3.73%1.57%
120272Frank GrieveAro Valley M30-39M 24:37.3+8:50.8+56.08%64.07%3.69%1.53%
12170Shinichi MuroyaKarori M50-59M 24:40.4+8:53.9+56.41%63.94%3.49%1.32%
122188Chris JenkinsonWellington Central M30-39M 24:41.0+8:54.5+56.47%63.91%3.45%1.28%
123518Warren KingThorndon M-unknownM 24:42.2+8:55.7+56.60%63.86%3.37%1.20%
124877Belinda Hutchinsonseatoun F50-59F 24:49.0+9:02.5+57.32%63.57%2.93%0.75%
1242500Pacer 25 minutesF/M00-09F/M 24:49.0+9:02.5+57.32%63.57%2.93%0.75%
126113Danielle TrewoonHataitai F20-29F 24:49.1+9:02.6+57.33%63.56%2.92%0.74%
127321Adam LawlorParaparaumu M30-39M 24:49.8+9:03.3+57.40%63.53%2.88%0.69%
128327Timothy YoungWellington M30-39M 24:54.7+9:08.2+57.92%63.32%2.56%0.37%
129375Natasha KowalakPinehaven F30-39F 24:57.0+9:10.5+58.16%63.23%2.41%0.21%
130800Matt ReidPinehaven M30-39M 24:57.1+9:10.6+58.17%63.22%2.40%0.21%
131198Justin YoungNewtown M30-39M 25:00.2+9:13.7+58.50%63.09%2.20%0.00%
13223Greg MaxtedPaparangi M30-39M 25:00.9+9:14.4+58.57%63.06%2.16%-0.05%
13340Kath LittlerTawa F40-49F 25:02.8+9:16.3+58.77%62.98%2.03%-0.17%
134560Rob SansonBrooklyn M40-49M 25:12.8+9:26.3+59.83%62.57%1.38%-0.84%
135256Marketa Langovate Aro F40-49F 25:15.7+9:29.2+60.14%62.45%1.19%-1.03%
13618Adam BennettsAro Valley M40-49M 25:24.4+9:37.9+61.06%62.09%0.62%-1.61%
137298Benjamin McKayMount Victoria M30-39M 25:29.4+9:42.9+61.58%61.89%0.30%-1.95%
138548Samuel OldAro Valley M20-29M 25:30.5+9:44.0+61.70%61.84%0.23%-2.02%
139725Cheryl HenriksenRoseneath F30-39F 25:34.4+9:47.9+62.11%61.69%-0.03%-2.28%
140112Anna BreenWellington F20-29F 25:41.0+9:54.5+62.81%61.42%-0.46%-2.72%
141904Saul ButlerKarori M50-59M 25:41.8+9:55.3+62.89%61.39%-0.51%-2.77%
142405Dennis HardieWilton M60-69M 25:47.4+10:00.9+63.49%61.17%-0.88%-3.15%
143866Steve KeatsBerhamphore M40-49M 25:55.9+10:09.4+64.38%60.83%-1.43%-3.71%
144907Mason LongdillPlimmerton M20-29M 26:04.5+10:18.0+65.29%60.50%-1.99%-4.29%
14554Rose FrendinTitahi Bay F20-29F 26:05.9+10:19.4+65.44%60.44%-2.08%-4.38%
146874Freya PollockHataitai F00-09F 26:07.7+10:21.2+65.63%60.38%-2.20%-4.50%
147542Anna Kootte Aro F30-39F 26:11.9+10:25.4+66.08%60.21%-2.47%-4.78%
148255Nick WillmottNgaio M30-39M 26:17.4+10:30.9+66.66%60.00%-2.83%-5.15%
149757Jenny BromleyKapiti F40-49F 26:18.2+10:31.7+66.74%59.97%-2.88%-5.20%
15061Karen JenkinsonHataitai F50-59F 26:23.2+10:36.7+67.27%59.78%-3.21%-5.53%
151643Phil GoodwinBrooklyn M50-59M 26:23.6+10:37.1+67.31%59.77%-3.24%-5.56%
15255Don McLaren-SmithKelburn M50-59M 26:26.7+10:40.2+67.64%59.65%-3.44%-5.77%
152903Elwin AlcazarMt Cook, Wellington M30-39M 26:26.7+10:40.2+67.64%59.65%-3.44%-5.77%
154316Rachael WookeyIsland Bay F20-29F 26:27.8+10:41.3+67.75%59.61%-3.51%-5.84%
15530Jhowei Gomeste Aro M30-39M 26:30.4+10:43.9+68.03%59.51%-3.68%-6.01%
15672Sam OlivecronaMount Cook M20-29M 26:44.4+10:57.9+69.51%58.99%-4.59%-6.95%
15710Jessica JonesKingston F40-49F 26:45.2+10:58.7+69.59%58.96%-4.64%-7.00%
158145Lawrence ChuNewtown M20-29M 26:48.9+11:02.4+69.98%58.83%-4.89%-7.25%
159878Gareth Hutchinsonseatoun M50-59M 26:49.5+11:03.0+70.05%58.81%-4.92%-7.29%
160760Gregor CosterKarori M70-79M 26:53.2+11:06.7+70.44%58.67%-5.17%-7.53%
161251Julia KennedyNorthland F40-49F 26:55.7+11:09.2+70.70%58.58%-5.33%-7.70%
1629Paul JohansonAro Valley M30-39M 26:56.2+11:09.7+70.76%58.56%-5.36%-7.73%
163883Annette FranklinChurton Park F30-39F 27:03.1+11:16.6+71.48%58.31%-5.81%-8.19%
164718Krystle PrenterHataitai F30-39F 27:04.2+11:17.7+71.60%58.27%-5.88%-8.27%
165882Peter RamagePetone M30-39M 27:12.8+11:26.3+72.51%57.97%-6.44%-8.84%
16639Kyle SchwartzIsland Bay M30-39M 27:22.0+11:35.5+73.48%57.64%-7.04%-9.45%
166524Leo BrowningAro Valley M20-29M 27:22.0+11:35.5+73.48%57.64%-7.04%-9.45%
16816Jaime VessiotStrathmore Park F30-39F 27:25.2+11:38.7+73.82%57.53%-7.25%-9.67%
169460Sonya GilesWellington F20-29F 27:26.4+11:39.9+73.95%57.49%-7.33%-9.75%
170317Angus HawkinsIsland Bay M20-29M 27:27.0+11:40.5+74.01%57.47%-7.37%-9.79%
17125Emma BassettNorthland F30-39F 27:27.8+11:41.3+74.09%57.44%-7.42%-9.84%
172463Caroline LordThorndon F-unknownF 27:28.4+11:41.9+74.16%57.42%-7.46%-9.88%
173887Charlie KeelingWellington F20-29F 27:28.9+11:42.4+74.21%57.40%-7.49%-9.91%
17469Lindsay Youngte Aro F30-39F 27:30.8+11:44.3+74.41%57.34%-7.62%-10.04%
175621Trica SloanAro Valley F50-59F 27:33.3+11:46.8+74.68%57.25%-7.78%-10.21%
1762730Pacer 27 minutes, 30 secondsF/M00-09F/M 27:34.0+11:47.5+74.75%57.22%-7.83%-10.25%
177681Dan PriceCrofton Downs M30-39M 27:34.6+11:48.1+74.81%57.20%-7.86%-10.29%
178727Colin RobinsonKelburn M-unknownM 27:39.4+11:52.9+75.32%57.04%-8.18%-10.61%
179408Marian McDonaldF50-59F 27:41.3+11:54.8+75.52%56.97%-8.30%-10.74%
180685Ralph DickinsonWellington M60-69M 27:45.1+11:58.6+75.92%56.84%-8.55%-10.99%
18129Denise PilcherNgaio F50-59F 27:53.8+12:07.3+76.84%56.55%-9.12%-11.57%
182139Ryan McCarvillWellington M30-39M 27:58.1+12:11.6+77.30%56.40%-9.40%-11.86%
183897Isaac WallPorirua M10-19M 28:07.8+12:21.3+78.32%56.08%-10.03%-12.50%
184913Lauren Smithte Aro F20-29F 28:10.9+12:24.4+78.65%55.98%-10.23%-12.71%
185326Nick DavisBroadmeadows M30-39M 28:13.2+12:26.7+78.89%55.90%-10.38%-12.86%
186324Tim SwanM30-39M 28:20.9+12:34.4+79.70%55.65%-10.88%-13.38%
187280Ethan AbbeyRoseneath M30-39M 28:25.7+12:39.2+80.21%55.49%-11.20%-13.70%
18834Allison Groveste Aro F50-59F 28:26.8+12:40.3+80.33%55.45%-11.27%-13.77%
189406Sophie IvoryBrooklyn F30-39F 28:33.0+12:46.5+80.98%55.25%-11.67%-14.18%
190809Nataly NoguerEpuni F30-39F 28:33.2+12:46.7+81.00%55.25%-11.68%-14.20%
19135Michael Sovikte Aro M50-59M 28:35.7+12:49.2+81.27%55.17%-11.85%-14.36%
192397Jenny LoveNorthland F30-39F 28:36.2+12:49.7+81.32%55.15%-11.88%-14.40%
193219Fiona MacmasterHataitai F50-59F 28:39.2+12:52.7+81.64%55.05%-12.08%-14.60%
194758Nicola StevensonWellington F40-49F 28:44.2+12:57.7+82.17%54.90%-12.40%-14.93%
195464Siofra FogartyWellington F20-29F 28:46.0+12:59.5+82.36%54.84%-12.52%-15.05%
196905Julie SwindenKarori F40-49F 28:49.2+13:02.7+82.69%54.74%-12.73%-15.26%
197772Marina SmithWellington F50-59F 28:49.7+13:03.2+82.75%54.72%-12.76%-15.30%
198213Ruth McKinlayKelburn F20-29F 28:57.2+13:10.7+83.54%54.48%-13.25%-15.80%
199631Kate FreemanNewtown F20-29F 28:58.5+13:12.0+83.68%54.44%-13.33%-15.88%
200673Lynn GestroPorirua F40-49F 29:02.2+13:15.7+84.07%54.33%-13.58%-16.13%
201283Geraldine DuobaMaungaraki F40-49F 29:02.7+13:16.2+84.12%54.31%-13.61%-16.16%
202172Rebecca DawsonKarori F20-29F 29:03.0+13:16.5+84.15%54.30%-13.63%-16.18%
203729Chelsea HaughtonMiramar F20-29F 29:03.6+13:17.1+84.22%54.28%-13.67%-16.22%
204308Sophia NobleWellington F20-29F 29:11.1+13:24.6+85.01%54.05%-14.16%-16.72%
205679Kirsty HuntAro Valley F40-49F 29:11.5+13:25.0+85.05%54.04%-14.18%-16.75%
206898Gretta O'ConnellOwhiro Bay F30-39F 29:16.9+13:30.4+85.62%53.87%-14.53%-17.11%
207892Emily FisherNgaio F10-19F 29:17.2+13:30.7+85.65%53.86%-14.55%-17.13%
208574Tasmin LeungWellington F10-19F 29:17.8+13:31.3+85.72%53.85%-14.59%-17.17%
209899Linda WilliamsIsland Bay F30-39F 29:19.0+13:32.5+85.84%53.81%-14.67%-17.25%
210671Ferne CheethamAro Valley F20-29F 29:24.3+13:37.8+86.40%53.65%-15.02%-17.60%
211894Tracy GrayWellington F40-49F 29:25.8+13:39.3+86.56%53.60%-15.11%-17.70%
212465Emily MussonMount Victoria F20-29F 29:28.2+13:41.7+86.81%53.53%-15.27%-17.86%
213368Kahurangi GrahamKelburn F20-29F 29:31.1+13:44.6+87.12%53.44%-15.46%-18.06%
214535Alex TapperKelburn F20-29F 29:34.8+13:48.3+87.51%53.33%-15.70%-18.30%
21552Nicci Stilwellte Aro F30-39F 29:35.0+13:48.5+87.53%53.32%-15.71%-18.32%
216890Alan Vander molenM-unknownM 29:37.5+13:51.0+87.80%53.25%-15.88%-18.48%
217178Laurence FeehanKarori M60-69M 29:37.9+13:51.4+87.84%53.24%-15.90%-18.51%
218106Willie StephensEastbourne M30-39M 29:38.8+13:52.3+87.93%53.21%-15.96%-18.57%
219311Alissa CaitNorthland F30-39F 29:42.9+13:56.4+88.37%53.09%-16.23%-18.84%
220134Dael WilliamsF50-59F 29:45.9+13:59.4+88.68%53.00%-16.42%-19.04%
221850Sarah ButlerBerhampore F30-39F 29:48.5+14:02.0+88.96%52.92%-16.59%-19.22%
222114Michelle KnightMount Cook F30-39F 29:55.9+14:09.4+89.74%52.70%-17.08%-19.71%
222881Kara Knightte Aro F30-39F 29:55.9+14:09.4+89.74%52.70%-17.08%-19.71%
2243000Pacer 30 minutesF/M00-09F/M 29:57.1+14:10.6+89.87%52.67%-17.15%-19.79%
22571Jasmine SmithHataitai F20-29F 29:57.7+14:11.2+89.93%52.65%-17.19%-19.83%
225914Ketan PatelRoseneath M20-29M 29:57.7+14:11.2+89.93%52.65%-17.19%-19.83%
22745Laura ThompsonBrooklyn F20-29F 30:25.0+14:38.5+92.82%51.86%-18.97%-21.65%
228886Fiona chanKhandallah F40-49F 30:31.7+14:45.2+93.52%51.67%-19.41%-22.10%
22942Oonagh MorleyNewtown F20-29F 30:48.2+15:01.7+95.27%51.21%-20.49%-23.20%
23031Bevan Wallacete Aro M60-69M 30:49.6+15:03.1+95.41%51.17%-20.58%-23.29%
231116David O'BrienHataitai M30-39M 31:06.7+15:20.2+97.22%50.70%-21.69%-24.43%
232508Paul JakobsPorirua M50-59M 31:14.1+15:27.6+98.00%50.50%-22.17%-24.92%
233109Julie RyanTawa F50-59F 31:21.0+15:34.5+98.73%50.32%-22.62%-25.38%
234867Keith VincentHavelock North M60-69M 31:34.5+15:48.0+100.16%49.96%-23.50%-26.28%
23553Megan LeversBerhampore F30-39F 31:49.9+16:03.4+101.79%49.56%-24.51%-27.31%
236873Jennifer TurnerHataitai F50-59F 31:50.1+16:03.6+101.81%49.55%-24.52%-27.32%
237908Tess TuxfordNewtown F20-29F 31:54.4+16:07.9+102.26%49.44%-24.80%-27.61%
238268Liz MorrisonKilbirnie F70-79F 31:59.3+16:12.8+102.78%49.31%-25.12%-27.94%
239410Maeve MagennisAro Valley F20-29F 32:01.7+16:15.2+103.03%49.25%-25.28%-28.10%
24059Katrina MichelsonMount Victoria F50-59F 32:11.6+16:25.1+104.08%49.00%-25.92%-28.76%
24177Don StevensNorthland M50-59M 32:15.9+16:29.4+104.53%48.89%-26.20%-29.04%
242847Marie-Joelle BastienWaikanae F30-39F 32:16.8+16:30.3+104.63%48.87%-26.26%-29.10%
243153Mireille ConsalveyF40-49F 32:19.7+16:33.2+104.93%48.80%-26.45%-29.30%
244865Helen GowerBreaker Bay F40-49F 32:43.3+16:56.8+107.43%48.21%-27.99%-30.87%
245199Anne TaylorJohnsonville F70-79F 32:51.7+17:05.2+108.31%48.00%-28.54%-31.43%
246234Rachel KirbyNewtown F20-29F 33:01.0+17:14.5+109.30%47.78%-29.14%-32.05%
247733Sam SmallLower Hutt F20-29F 33:26.2+17:39.7+111.96%47.18%-30.79%-33.73%
248136Tamsin RoysonHataitai F40-49F 33:36.7+17:50.2+113.07%46.93%-31.47%-34.43%
24938Laura FeaseyKarori F40-49F 33:42.3+17:55.8+113.66%46.80%-31.84%-34.80%
25020Helen MajorhaziKelson F40-49F 33:51.7+18:05.2+114.65%46.59%-32.45%-35.43%
251419Meghan StuthridgeMount Victoria F20-29F 34:13.8+18:27.3+116.99%46.09%-33.89%-36.90%
252599Jacquline NordonWellington F50-59F 34:21.7+18:35.2+117.82%45.91%-34.40%-37.43%
253915Jarem WylieM20-29M 34:25.5+18:39.0+118.23%45.82%-34.65%-37.68%
254180Heather SinclairKarori F60-69F 34:32.7+18:46.2+118.99%45.67%-35.12%-38.16%
2553Tina LeungWellington Central F40-49F 34:48.2+19:01.7+120.62%45.33%-36.13%-39.19%
256641Karen CollinsBrooklyn F50-59F 35:26.9+19:40.4+124.71%44.50%-38.65%-41.77%
257774Matt TrumanKilbirnie M30-39M 35:27.5+19:41.0+124.78%44.49%-38.69%-41.81%
258902Jacob LeungWellington M00-09M 38:02.4+22:15.9+141.14%41.47%-48.79%-52.14%
259911Rebecca MatthewsWellington F20-29F 38:14.1+22:27.6+142.38%41.26%-49.55%-52.92%
260273Eleanor RoysonHataitai F10-19F 38:35.5+22:49.0+144.64%40.88%-50.95%-54.35%
261422Jason TaylorWellington CBD M50-59M 44:04.8+28:18.3+179.43%35.79%-72.42%-76.30%
  • 5km Run Female - Overall
Place Bib Racer name Affiliation Category Gender Finish time
1666Annie BondNewtown F30-39F 18:52.2--100%32.29%33.91%
2193Sophie DicksonKarori F30-39F 19:33.0+0:40.8+3.60%96.52%29.85%31.53%
3869Bridget KiddleKarori F20-29F 19:57.7+1:05.5+5.79%94.53%28.38%30.09%
4536Nicola HankinsonNewlands F40-49F 20:03.0+1:10.8+6.25%94.11%28.06%29.78%
524Bex HutchinsonMount Victoria F20-29F 20:16.6+1:24.4+7.45%93.06%27.25%28.99%
6186Claudia HarrisonHataitai F30-39F 20:43.1+1:50.9+9.80%91.08%25.66%27.44%
7891Jemma ClarryBury St Edmunds F20-29F 21:24.5+2:32.3+13.45%88.14%23.18%25.02%
8404Kasey MacKinnonMount Cook F20-29F 21:40.9+2:48.7+14.90%87.03%22.20%24.07%
9802Marseille BowieWellington F10-19F 22:03.3+3:11.1+16.88%85.56%20.86%22.76%
10670Betty HarpHataitai F50-59F 22:06.4+3:14.2+17.15%85.36%20.68%22.58%
11825Susan ClareHataitai F40-49F 22:14.5+3:22.3+17.87%84.84%20.19%22.10%
12346Lesa DavidsonHataitai F40-49F 22:21.8+3:29.6+18.51%84.38%19.76%21.68%
13901Jennifer MattlinKarori F30-39F 22:32.3+3:40.1+19.44%83.72%19.13%21.07%
1433Sarah FountainKhandallah F30-39F 22:54.0+4:01.8+21.36%82.40%17.83%19.80%
14104Clare McKinlayVogeltown F30-39F 22:54.0+4:01.8+21.36%82.40%17.83%19.80%
16781Janette LandersWellington F30-39F 22:57.2+4:05.0+21.64%82.21%17.64%19.61%
1767Sophie CostelloMount Victoria F20-29F 23:01.3+4:09.1+22.00%81.97%17.40%19.37%
18365Lucy LawlorParaparaumu F30-39F 23:08.8+4:16.6+22.66%81.52%16.95%18.94%
1964Kristina CameronParaparaumu F30-39F 23:17.9+4:25.7+23.47%80.99%16.40%18.40%
20841Elisha PriceWellington F20-29F 23:42.0+4:49.8+25.60%79.62%14.96%17.00%
2146Amanda ChenAro Valley F20-29F 23:48.0+4:55.8+26.13%79.29%14.60%16.65%
22244Gemma GouldMount Cook F30-39F 23:59.9+5:07.7+27.18%78.63%13.89%15.95%
23889Katie BudgenKelburn F20-29F 24:00.3+5:08.1+27.21%78.61%13.87%15.93%
24229Aine O'DeaNewtown F20-29F 24:12.6+5:20.4+28.30%77.94%13.13%15.21%
25447Aoife Ni DheaNewtown F20-29F 24:18.1+5:25.9+28.78%77.65%12.80%14.89%
26896Maree CarsonWellington F30-39F 24:19.6+5:27.4+28.92%77.57%12.71%14.80%
27695Lauren EllisMount Cook F20-29F 24:36.7+5:44.5+30.43%76.67%11.69%13.80%
28877Belinda Hutchinsonseatoun F50-59F 24:49.0+5:56.8+31.51%76.04%10.96%13.09%
29113Danielle TrewoonHataitai F20-29F 24:49.1+5:56.9+31.52%76.03%10.95%13.08%
30375Natasha KowalakPinehaven F30-39F 24:57.0+6:04.8+32.22%75.63%10.48%12.62%
3140Kath LittlerTawa F40-49F 25:02.8+6:10.6+32.73%75.34%10.13%12.28%
32256Marketa Langovate Aro F40-49F 25:15.7+6:23.5+33.87%74.70%9.36%11.53%
33725Cheryl HenriksenRoseneath F30-39F 25:34.4+6:42.2+35.52%73.79%8.24%10.44%
34112Anna BreenWellington F20-29F 25:41.0+6:48.8+36.11%73.47%7.85%10.05%
3554Rose FrendinTitahi Bay F20-29F 26:05.9+7:13.7+38.31%72.30%6.36%8.60%
36874Freya PollockHataitai F00-09F 26:07.7+7:15.5+38.46%72.22%6.25%8.49%
37542Anna Kootte Aro F30-39F 26:11.9+7:19.7+38.84%72.03%6.00%8.25%
38757Jenny BromleyKapiti F40-49F 26:18.2+7:26.0+39.39%71.74%5.62%7.88%
3961Karen JenkinsonHataitai F50-59F 26:23.2+7:31.0+39.83%71.51%5.32%7.59%
40316Rachael WookeyIsland Bay F20-29F 26:27.8+7:35.6+40.24%71.31%5.05%7.32%
4110Jessica JonesKingston F40-49F 26:45.2+7:53.0+41.78%70.53%4.01%6.30%
42251Julia KennedyNorthland F40-49F 26:55.7+8:03.5+42.70%70.07%3.38%5.69%
43883Annette FranklinChurton Park F30-39F 27:03.1+8:10.9+43.36%69.76%2.94%5.26%
44718Krystle PrenterHataitai F30-39F 27:04.2+8:12.0+43.46%69.71%2.87%5.19%
4516Jaime VessiotStrathmore Park F30-39F 27:25.2+8:33.0+45.31%68.82%1.61%3.97%
46460Sonya GilesWellington F20-29F 27:26.4+8:34.2+45.42%68.77%1.54%3.90%
4725Emma BassettNorthland F30-39F 27:27.8+8:35.6+45.54%68.71%1.46%3.82%
48463Caroline LordThorndon F-unknownF 27:28.4+8:36.2+45.59%68.68%1.42%3.78%
49887Charlie KeelingWellington F20-29F 27:28.9+8:36.7+45.64%68.66%1.39%3.75%
5069Lindsay Youngte Aro F30-39F 27:30.8+8:38.6+45.80%68.58%1.28%3.64%
51621Trica SloanAro Valley F50-59F 27:33.3+8:41.1+46.03%68.48%1.13%3.50%
52408Marian McDonaldF50-59F 27:41.3+8:49.1+46.73%68.15%0.65%3.03%
5329Denise PilcherNgaio F50-59F 27:53.8+9:01.6+47.84%67.64%-0.10%2.30%
54913Lauren Smithte Aro F20-29F 28:10.9+9:18.7+49.35%66.96%-1.12%1.30%
5534Allison Groveste Aro F50-59F 28:26.8+9:34.6+50.75%66.33%-2.07%0.37%
56406Sophie IvoryBrooklyn F30-39F 28:33.0+9:40.8+51.30%66.09%-2.44%0.01%
57809Nataly NoguerEpuni F30-39F 28:33.2+9:41.0+51.32%66.09%-2.45%0.00%
58397Jenny LoveNorthland F30-39F 28:36.2+9:44.0+51.58%65.97%-2.63%-0.18%
59219Fiona MacmasterHataitai F50-59F 28:39.2+9:47.0+51.85%65.86%-2.81%-0.35%
60758Nicola StevensonWellington F40-49F 28:44.2+9:52.0+52.29%65.67%-3.11%-0.64%
61464Siofra FogartyWellington F20-29F 28:46.0+9:53.8+52.45%65.60%-3.22%-0.75%
62905Julie SwindenKarori F40-49F 28:49.2+9:57.0+52.73%65.48%-3.41%-0.93%
63772Marina SmithWellington F50-59F 28:49.7+9:57.5+52.77%65.46%-3.44%-0.96%
64213Ruth McKinlayKelburn F20-29F 28:57.2+10:05.0+53.44%65.17%-3.89%-1.40%
65631Kate FreemanNewtown F20-29F 28:58.5+10:06.3+53.55%65.13%-3.97%-1.48%
66673Lynn GestroPorirua F40-49F 29:02.2+10:10.0+53.88%64.99%-4.19%-1.69%
67283Geraldine DuobaMaungaraki F40-49F 29:02.7+10:10.5+53.92%64.97%-4.22%-1.72%
68172Rebecca DawsonKarori F20-29F 29:03.0+10:10.8+53.95%64.96%-4.23%-1.74%
69729Chelsea HaughtonMiramar F20-29F 29:03.6+10:11.4+54.00%64.93%-4.27%-1.77%
70308Sophia NobleWellington F20-29F 29:11.1+10:18.9+54.66%64.66%-4.72%-2.21%
71679Kirsty HuntAro Valley F40-49F 29:11.5+10:19.3+54.70%64.64%-4.74%-2.24%
72898Gretta O'ConnellOwhiro Bay F30-39F 29:16.9+10:24.7+55.18%64.44%-5.07%-2.55%
73892Emily FisherNgaio F10-19F 29:17.2+10:25.0+55.20%64.43%-5.08%-2.57%
74574Tasmin LeungWellington F10-19F 29:17.8+10:25.6+55.26%64.41%-5.12%-2.60%
75899Linda WilliamsIsland Bay F30-39F 29:19.0+10:26.8+55.36%64.37%-5.19%-2.67%
76671Ferne CheethamAro Valley F20-29F 29:24.3+10:32.1+55.83%64.17%-5.51%-2.98%
77894Tracy GrayWellington F40-49F 29:25.8+10:33.6+55.96%64.12%-5.60%-3.07%
78465Emily MussonMount Victoria F20-29F 29:28.2+10:36.0+56.17%64.03%-5.74%-3.21%
79368Kahurangi GrahamKelburn F20-29F 29:31.1+10:38.9+56.43%63.93%-5.91%-3.38%
80535Alex TapperKelburn F20-29F 29:34.8+10:42.6+56.76%63.79%-6.14%-3.60%
8152Nicci Stilwellte Aro F30-39F 29:35.0+10:42.8+56.77%63.79%-6.15%-3.61%
82311Alissa CaitNorthland F30-39F 29:42.9+10:50.7+57.47%63.50%-6.62%-4.07%
83134Dael WilliamsF50-59F 29:45.9+10:53.7+57.74%63.40%-6.80%-4.24%
84850Sarah ButlerBerhampore F30-39F 29:48.5+10:56.3+57.97%63.30%-6.96%-4.40%
85114Michelle KnightMount Cook F30-39F 29:55.9+11:03.7+58.62%63.04%-7.40%-4.83%
85881Kara Knightte Aro F30-39F 29:55.9+11:03.7+58.62%63.04%-7.40%-4.83%
8771Jasmine SmithHataitai F20-29F 29:57.7+11:05.5+58.78%62.98%-7.51%-4.93%
8845Laura ThompsonBrooklyn F20-29F 30:25.0+11:32.8+61.19%62.04%-9.14%-6.53%
89886Fiona chanKhandallah F40-49F 30:31.7+11:39.5+61.78%61.81%-9.54%-6.92%
9042Oonagh MorleyNewtown F20-29F 30:48.2+11:56.0+63.24%61.26%-10.53%-7.88%
91109Julie RyanTawa F50-59F 31:21.0+12:28.8+66.14%60.19%-12.49%-9.79%
9253Megan LeversBerhampore F30-39F 31:49.9+12:57.7+68.69%59.28%-14.22%-11.48%
93873Jennifer TurnerHataitai F50-59F 31:50.1+12:57.9+68.71%59.27%-14.23%-11.49%
94908Tess TuxfordNewtown F20-29F 31:54.4+13:02.2+69.09%59.14%-14.48%-11.74%
95268Liz MorrisonKilbirnie F70-79F 31:59.3+13:07.1+69.52%58.99%-14.78%-12.03%
96410Maeve MagennisAro Valley F20-29F 32:01.7+13:09.5+69.73%58.92%-14.92%-12.17%
9759Katrina MichelsonMount Victoria F50-59F 32:11.6+13:19.4+70.61%58.61%-15.51%-12.75%
98847Marie-Joelle BastienWaikanae F30-39F 32:16.8+13:24.6+71.07%58.46%-15.82%-13.05%
99153Mireille ConsalveyF40-49F 32:19.7+13:27.5+71.32%58.37%-16.00%-13.22%
100865Helen GowerBreaker Bay F40-49F 32:43.3+13:51.1+73.41%57.67%-17.41%-14.60%
101199Anne TaylorJohnsonville F70-79F 32:51.7+13:59.5+74.15%57.42%-17.91%-15.09%
102234Rachel KirbyNewtown F20-29F 33:01.0+14:08.8+74.97%57.15%-18.47%-15.63%
103733Sam SmallLower Hutt F20-29F 33:26.2+14:34.0+77.19%56.44%-19.97%-17.10%
104136Tamsin RoysonHataitai F40-49F 33:36.7+14:44.5+78.12%56.14%-20.60%-17.72%
10538Laura FeaseyKarori F40-49F 33:42.3+14:50.1+78.62%55.99%-20.94%-18.04%
10620Helen MajorhaziKelson F40-49F 33:51.7+14:59.5+79.45%55.73%-21.50%-18.59%
107419Meghan StuthridgeMount Victoria F20-29F 34:13.8+15:21.6+81.40%55.13%-22.82%-19.88%
108599Jacquline NordonWellington F50-59F 34:21.7+15:29.5+82.10%54.92%-23.29%-20.34%
109180Heather SinclairKarori F60-69F 34:32.7+15:40.5+83.07%54.62%-23.95%-20.98%
1103Tina LeungWellington Central F40-49F 34:48.2+15:56.0+84.44%54.22%-24.88%-21.89%
111641Karen CollinsBrooklyn F50-59F 35:26.9+16:34.7+87.86%53.23%-27.19%-24.15%
112911Rebecca MatthewsWellington F20-29F 38:14.1+19:21.9+102.62%49.35%-37.19%-33.91%
113273Eleanor RoysonHataitai F10-19F 38:35.5+19:43.3+104.51%48.90%-38.47%-35.16%
  • 5km Run Female - F00-09
Place Bib Racer name Affiliation Category Gender Finish time
1874Freya PollockHataitai F00-09F 26:07.7--100%0.00%0.00%
  • 5km Run Female - F10-19
Place Bib Racer name Affiliation Category Gender Finish time
1802Marseille BowieWellington F10-19F 22:03.3--100%26.01%24.71%
2892Emily FisherNgaio F10-19F 29:17.2+7:13.9+32.79%75.31%1.75%0.02%
3574Tasmin LeungWellington F10-19F 29:17.8+7:14.5+32.83%75.28%1.71%-0.02%
4273Eleanor RoysonHataitai F10-19F 38:35.5+16:32.2+74.98%57.15%-29.47%-31.75%
  • 5km Run Female - F20-29
Place Bib Racer name Affiliation Category Gender Finish time
1869Bridget KiddleKarori F20-29F 19:57.7--100%27.81%30.61%
224Bex HutchinsonMount Victoria F20-29F 20:16.6+0:18.9+1.58%98.45%26.67%29.51%
3891Jemma ClarryBury St Edmunds F20-29F 21:24.5+1:26.8+7.25%93.24%22.58%25.58%
4404Kasey MacKinnonMount Cook F20-29F 21:40.9+1:43.2+8.62%92.07%21.59%24.63%
567Sophie CostelloMount Victoria F20-29F 23:01.3+3:03.6+15.33%86.71%16.75%19.97%
6841Elisha PriceWellington F20-29F 23:42.0+3:44.3+18.73%84.23%14.29%17.61%
746Amanda ChenAro Valley F20-29F 23:48.0+3:50.3+19.23%83.87%13.93%17.27%
8889Katie BudgenKelburn F20-29F 24:00.3+4:02.6+20.26%83.16%13.19%16.55%
9229Aine O'DeaNewtown F20-29F 24:12.6+4:14.9+21.28%82.45%12.45%15.84%
10447Aoife Ni DheaNewtown F20-29F 24:18.1+4:20.4+21.74%82.14%12.12%15.52%
11695Lauren EllisMount Cook F20-29F 24:36.7+4:39.0+23.29%81.11%11.00%14.44%
12113Danielle TrewoonHataitai F20-29F 24:49.1+4:51.4+24.33%80.43%10.25%13.73%
13112Anna BreenWellington F20-29F 25:41.0+5:43.3+28.66%77.72%7.12%10.72%
1454Rose FrendinTitahi Bay F20-29F 26:05.9+6:08.2+30.74%76.49%5.62%9.28%
15316Rachael WookeyIsland Bay F20-29F 26:27.8+6:30.1+32.57%75.43%4.30%8.01%
16460Sonya GilesWellington F20-29F 27:26.4+7:28.7+37.46%72.75%0.77%4.61%
17887Charlie KeelingWellington F20-29F 27:28.9+7:31.2+37.67%72.64%0.62%4.47%
18913Lauren Smithte Aro F20-29F 28:10.9+8:13.2+41.18%70.83%-1.91%2.03%
19464Siofra FogartyWellington F20-29F 28:46.0+8:48.3+44.11%69.39%-4.03%0.00%
20213Ruth McKinlayKelburn F20-29F 28:57.2+8:59.5+45.04%68.94%-4.70%-0.65%
21631Kate FreemanNewtown F20-29F 28:58.5+9:00.8+45.15%68.89%-4.78%-0.72%
22172Rebecca DawsonKarori F20-29F 29:03.0+9:05.3+45.53%68.71%-5.05%-0.98%
23729Chelsea HaughtonMiramar F20-29F 29:03.6+9:05.9+45.58%68.69%-5.09%-1.02%
24308Sophia NobleWellington F20-29F 29:11.1+9:13.4+46.21%68.40%-5.54%-1.45%
25671Ferne CheethamAro Valley F20-29F 29:24.3+9:26.6+47.31%67.89%-6.34%-2.22%
26465Emily MussonMount Victoria F20-29F 29:28.2+9:30.5+47.63%67.74%-6.57%-2.44%
27368Kahurangi GrahamKelburn F20-29F 29:31.1+9:33.4+47.88%67.62%-6.75%-2.61%
28535Alex TapperKelburn F20-29F 29:34.8+9:37.1+48.18%67.48%-6.97%-2.83%
2971Jasmine SmithHataitai F20-29F 29:57.7+10:00.0+50.10%66.62%-8.35%-4.15%
3045Laura ThompsonBrooklyn F20-29F 30:25.0+10:27.3+52.38%65.63%-10.00%-5.74%
3142Oonagh MorleyNewtown F20-29F 30:48.2+10:50.5+54.31%64.80%-11.39%-7.08%
32908Tess TuxfordNewtown F20-29F 31:54.4+11:56.7+59.84%62.56%-15.38%-10.92%
33410Maeve MagennisAro Valley F20-29F 32:01.7+12:04.0+60.45%62.33%-15.82%-11.34%
34234Rachel KirbyNewtown F20-29F 33:01.0+13:03.3+65.40%60.46%-19.40%-14.77%
35733Sam SmallLower Hutt F20-29F 33:26.2+13:28.5+67.50%59.70%-20.92%-16.23%
36419Meghan StuthridgeMount Victoria F20-29F 34:13.8+14:16.1+71.48%58.32%-23.79%-18.99%
37911Rebecca MatthewsWellington F20-29F 38:14.1+18:16.4+91.54%52.21%-38.27%-32.91%
  • 5km Run Female - F30-39
Place Bib Racer name Affiliation Category Gender Finish time
1666Annie BondNewtown F30-39F 18:52.2--100%28.30%30.29%
2193Sophie DicksonKarori F30-39F 19:33.0+0:40.8+3.60%96.52%25.71%27.78%
3186Claudia HarrisonHataitai F30-39F 20:43.1+1:50.9+9.80%91.08%21.27%23.46%
4901Jennifer MattlinKarori F30-39F 22:32.3+3:40.1+19.44%83.72%14.36%16.74%
533Sarah FountainKhandallah F30-39F 22:54.0+4:01.8+21.36%82.40%12.98%15.40%
5104Clare McKinlayVogeltown F30-39F 22:54.0+4:01.8+21.36%82.40%12.98%15.40%
7781Janette LandersWellington F30-39F 22:57.2+4:05.0+21.64%82.21%12.78%15.21%
8365Lucy LawlorParaparaumu F30-39F 23:08.8+4:16.6+22.66%81.52%12.05%14.49%
964Kristina CameronParaparaumu F30-39F 23:17.9+4:25.7+23.47%80.99%11.47%13.93%
10244Gemma GouldMount Cook F30-39F 23:59.9+5:07.7+27.18%78.63%8.81%11.35%
11896Maree CarsonWellington F30-39F 24:19.6+5:27.4+28.92%77.57%7.56%10.13%
12375Natasha KowalakPinehaven F30-39F 24:57.0+6:04.8+32.22%75.63%5.19%7.83%
13725Cheryl HenriksenRoseneath F30-39F 25:34.4+6:42.2+35.52%73.79%2.83%5.53%
14542Anna Kootte Aro F30-39F 26:11.9+7:19.7+38.84%72.03%0.45%3.22%
15883Annette FranklinChurton Park F30-39F 27:03.1+8:10.9+43.36%69.76%-2.79%0.07%
16718Krystle PrenterHataitai F30-39F 27:04.2+8:12.0+43.46%69.71%-2.86%0.00%
1716Jaime VessiotStrathmore Park F30-39F 27:25.2+8:33.0+45.31%68.82%-4.19%-1.29%
1825Emma BassettNorthland F30-39F 27:27.8+8:35.6+45.54%68.71%-4.36%-1.45%
1969Lindsay Youngte Aro F30-39F 27:30.8+8:38.6+45.80%68.58%-4.55%-1.64%
20406Sophie IvoryBrooklyn F30-39F 28:33.0+9:40.8+51.30%66.09%-8.49%-5.47%
21809Nataly NoguerEpuni F30-39F 28:33.2+9:41.0+51.32%66.09%-8.50%-5.48%
22397Jenny LoveNorthland F30-39F 28:36.2+9:44.0+51.58%65.97%-8.69%-5.66%
23898Gretta O'ConnellOwhiro Bay F30-39F 29:16.9+10:24.7+55.18%64.44%-11.27%-8.17%
24899Linda WilliamsIsland Bay F30-39F 29:19.0+10:26.8+55.36%64.37%-11.40%-8.30%
2552Nicci Stilwellte Aro F30-39F 29:35.0+10:42.8+56.77%63.79%-12.41%-9.28%
26311Alissa CaitNorthland F30-39F 29:42.9+10:50.7+57.47%63.50%-12.91%-9.77%
27850Sarah ButlerBerhampore F30-39F 29:48.5+10:56.3+57.97%63.30%-13.27%-10.12%
28114Michelle KnightMount Cook F30-39F 29:55.9+11:03.7+58.62%63.04%-13.74%-10.57%
28881Kara Knightte Aro F30-39F 29:55.9+11:03.7+58.62%63.04%-13.74%-10.57%
3053Megan LeversBerhampore F30-39F 31:49.9+12:57.7+68.69%59.28%-20.95%-17.59%
31847Marie-Joelle BastienWaikanae F30-39F 32:16.8+13:24.6+71.07%58.46%-22.66%-19.25%
  • 5km Run Female - F40-49
Place Bib Racer name Affiliation Category Gender Finish time
1536Nicola HankinsonNewlands F40-49F 20:03.0--100%29.91%30.95%
2825Susan ClareHataitai F40-49F 22:14.5+2:11.5+10.93%90.15%22.25%23.40%
3346Lesa DavidsonHataitai F40-49F 22:21.8+2:18.8+11.54%89.66%21.83%22.98%
440Kath LittlerTawa F40-49F 25:02.8+4:59.8+24.92%80.05%12.45%13.74%
5256Marketa Langovate Aro F40-49F 25:15.7+5:12.7+25.99%79.37%11.70%13.00%
6757Jenny BromleyKapiti F40-49F 26:18.2+6:15.2+31.19%76.23%8.06%9.41%
710Jessica JonesKingston F40-49F 26:45.2+6:42.2+33.43%74.94%6.48%7.86%
8251Julia KennedyNorthland F40-49F 26:55.7+6:52.7+34.31%74.46%5.87%7.26%
9758Nicola StevensonWellington F40-49F 28:44.2+8:41.2+43.33%69.77%-0.45%1.03%
10905Julie SwindenKarori F40-49F 28:49.2+8:46.2+43.74%69.57%-0.74%0.75%
11673Lynn GestroPorirua F40-49F 29:02.2+8:59.2+44.82%69.05%-1.50%0.00%
12283Geraldine DuobaMaungaraki F40-49F 29:02.7+8:59.7+44.86%69.03%-1.53%-0.03%
13679Kirsty HuntAro Valley F40-49F 29:11.5+9:08.5+45.59%68.68%-2.04%-0.53%
14894Tracy GrayWellington F40-49F 29:25.8+9:22.8+46.78%68.13%-2.87%-1.35%
15886Fiona chanKhandallah F40-49F 30:31.7+10:28.7+52.26%65.68%-6.71%-5.14%
16153Mireille ConsalveyF40-49F 32:19.7+12:16.7+61.24%62.02%-13.00%-11.34%
17865Helen GowerBreaker Bay F40-49F 32:43.3+12:40.3+63.20%61.27%-14.38%-12.69%
18136Tamsin RoysonHataitai F40-49F 33:36.7+13:33.7+67.64%59.65%-17.49%-15.76%
1938Laura FeaseyKarori F40-49F 33:42.3+13:39.3+68.10%59.49%-17.82%-16.08%
2020Helen MajorhaziKelson F40-49F 33:51.7+13:48.7+68.89%59.21%-18.36%-16.62%
213Tina LeungWellington Central F40-49F 34:48.2+14:45.2+73.58%57.61%-21.66%-19.86%
  • 5km Run Female - F50-59
Place Bib Racer name Affiliation Category Gender Finish time
1670Betty HarpHataitai F50-59F 22:06.4--100%24.18%22.85%
2877Belinda Hutchinsonseatoun F50-59F 24:49.0+2:42.6+12.26%89.08%14.88%13.39%
361Karen JenkinsonHataitai F50-59F 26:23.2+4:16.8+19.36%83.78%9.50%7.91%
4621Trica SloanAro Valley F50-59F 27:33.3+5:26.9+24.65%80.23%5.49%3.83%
5408Marian McDonaldF50-59F 27:41.3+5:34.9+25.25%79.84%5.03%3.37%
629Denise PilcherNgaio F50-59F 27:53.8+5:47.4+26.19%79.24%4.32%2.64%
734Allison Groveste Aro F50-59F 28:26.8+6:20.4+28.68%77.71%2.43%0.72%
8219Fiona MacmasterHataitai F50-59F 28:39.2+6:32.8+29.61%77.15%1.72%0.00%
9772Marina SmithWellington F50-59F 28:49.7+6:43.3+30.41%76.68%1.12%-0.61%
10134Dael WilliamsF50-59F 29:45.9+7:39.5+34.64%74.27%-2.09%-3.88%
11109Julie RyanTawa F50-59F 31:21.0+9:14.6+41.81%70.52%-7.53%-9.41%
12873Jennifer TurnerHataitai F50-59F 31:50.1+9:43.7+44.01%69.44%-9.19%-11.10%
1359Katrina MichelsonMount Victoria F50-59F 32:11.6+10:05.2+45.63%68.67%-10.42%-12.35%
14599Jacquline NordonWellington F50-59F 34:21.7+12:15.3+55.44%64.34%-17.86%-19.92%
15641Karen CollinsBrooklyn F50-59F 35:26.9+13:20.5+60.35%62.36%-21.58%-23.71%
  • 5km Run Female - F60-69
Place Bib Racer name Affiliation Category Gender Finish time
1180Heather SinclairKarori F60-69F 34:32.7--100%0.00%0.00%
  • 5km Run Female - F70-79
Place Bib Racer name Affiliation Category Gender Finish time
1268Liz MorrisonKilbirnie F70-79F 31:59.3--100%1.35%1.35%
2199Anne TaylorJohnsonville F70-79F 32:51.7+0:52.4+2.73%97.34%-1.35%-1.35%
  • 5km Run Female - F-unknown
Place Bib Racer name Affiliation Category Gender Finish time
1463Caroline LordThorndon F-unknownF 27:28.4--100%0.00%0.00%
  • 5km Run Male - Overall
Place Bib Racer name Affiliation Category Gender Finish time
1876Bert PrendergastJohnsonville M20-29M 15:46.5--100%33.62%32.50%
2150Ben TwymanCrofton Downs M20-29M 15:49.4+0:02.9+0.31%99.69%33.42%32.29%
3885Jaspar OrtfeldNgaio M10-19M 16:37.0+0:50.5+5.34%94.93%30.08%28.90%
448Walter SomervilleMount Victoria M30-39M 17:44.7+1:58.2+12.49%88.90%25.33%24.07%
5264Dion YiwHataitai M30-39M 17:49.6+2:03.1+13.01%88.49%24.99%23.72%
6590Charles WiseThorndon M20-29M 17:57.4+2:10.9+13.83%87.85%24.44%23.16%
7910Axel TieKarori M30-39M 17:58.7+2:12.2+13.97%87.74%24.35%23.07%
8225Bevan CoxHataitai M10-19M 17:58.9+2:12.4+13.99%87.73%24.34%23.06%
9571Bram Parmentierte Aro M20-29M 18:05.4+2:18.9+14.68%87.20%23.88%22.59%
10385Paul BarwickMiramar M40-49M 18:12.8+2:26.3+15.46%86.61%23.36%22.07%
1114James Gowerseatoun M40-49M 18:31.9+2:45.4+17.47%85.12%22.02%20.70%
12870Mike CousinsNormandale M40-49M 18:35.5+2:49.0+17.86%84.85%21.77%20.45%
13443JOHN CREWEIsland Bay M20-29M 18:36.2+2:49.7+17.93%84.80%21.72%20.40%
14856George WhitworthWellington M30-39M 18:46.7+3:00.2+19.04%84.01%20.99%19.65%
15584Matthew CryerKarori M30-39M 18:54.1+3:07.6+19.82%83.46%20.47%19.12%
16358Hartley Malcolm-StevensBrooklyn M30-39M 18:59.0+3:12.5+20.34%83.10%20.12%18.77%
17356Richard ClaesKelburn M30-39M 19:13.1+3:26.6+21.83%82.08%19.13%17.76%
18871Harry PolandKelburn M20-29M 19:15.8+3:29.3+22.11%81.89%18.95%17.57%
19254Nick PerryKarori M40-49M 19:21.9+3:35.4+22.76%81.46%18.52%17.14%
20815Lorcan ByrneM20-29M 19:23.9+3:37.4+22.97%81.32%18.38%16.99%
21893Giles PearsonThorndon M50-59M 19:28.1+3:41.6+23.41%81.03%18.08%16.70%
22912Will CritchlowKelburn M30-39M 19:31.0+3:44.5+23.72%80.83%17.88%16.49%
23248Neil LynchOriedntal Bay M30-39M 19:36.6+3:50.1+24.31%80.44%17.49%16.09%
24147Jonathon JacksonWellington M20-29M 19:43.4+3:56.9+25.03%79.98%17.01%15.60%
25182Alex BroughWellington M-unknownM 19:47.6+4:01.1+25.47%79.70%16.72%15.30%
26676Phil WallPorirua M50-59M 19:51.3+4:04.8+25.86%79.45%16.46%15.04%
2726Andreas StockingerHataitai M20-29M 19:53.1+4:06.6+26.05%79.33%16.33%14.91%
28239Matthew WilsonWellington Central M30-39M 19:53.3+4:06.8+26.08%79.32%16.32%14.90%
291406Bill WangM-unknownM 19:54.5+4:08.0+26.20%79.24%16.23%14.81%
30318Matt VeldeKingston M40-49M 19:57.1+4:10.6+26.48%79.07%16.05%14.63%
3149Brendan HaileHataitai M30-39M 19:58.9+4:12.4+26.67%78.95%15.92%14.50%
326Jamie Te Hiwite Aro M40-49M 19:59.4+4:12.9+26.72%78.91%15.89%14.46%
33231Wayne PatrickHighbury M40-49M 19:59.5+4:13.0+26.73%78.91%15.88%14.46%
34820Hooman BahreiniMelrose M30-39M 20:06.2+4:19.7+27.44%78.47%15.41%13.98%
35610Harry BarnesTawa M30-39M 20:08.0+4:21.5+27.63%78.35%15.28%13.85%
36731Mal VirideWellington M-unknownM 20:08.6+4:22.1+27.69%78.31%15.24%13.81%
37879Denny Adamson BarklaHataitai M20-29M 20:19.0+4:32.5+28.79%77.65%14.51%13.07%
3856Alistair CollowMount Victoria M20-29M 20:35.9+4:49.4+30.58%76.58%13.33%11.86%
39482Isaac Moffat-YoungWellington M20-29M 20:43.9+4:57.4+31.42%76.09%12.77%11.29%
40289Ronan McIlvennyNewtown M20-29M 21:04.2+5:17.7+33.57%74.87%11.34%9.84%
41728Tawhai MossEpuni M-unknownM 21:05.3+5:18.8+33.68%74.80%11.27%9.76%
42582Rutger MaasdamNgaio M20-29M 21:13.3+5:26.8+34.53%74.33%10.71%9.19%
43581Iain ShawNgaio M30-39M 21:14.4+5:27.9+34.64%74.27%10.63%9.11%
4463Karl JacksonSouthgate M30-39M 21:19.0+5:32.5+35.13%74.00%10.31%8.79%
45364Simon TemplemanNgaio M30-39M 21:20.0+5:33.5+35.24%73.95%10.24%8.71%
46909Phelim O'LearyHataitai M20-29M 21:24.9+5:38.4+35.75%73.66%9.89%8.37%
47863Roy McKeeThorndon M20-29M 21:43.0+5:56.5+37.67%72.64%8.62%7.07%
48454Ben DaviesWellington M20-29M 21:43.5+5:57.0+37.72%72.61%8.59%7.04%
49101Jarred CampbellWellington M20-29M 21:59.0+6:12.5+39.36%71.76%7.50%5.93%
50347Joel MacManusNewtown M20-29M 21:59.6+6:13.1+39.42%71.73%7.46%5.89%
5178Antony PaltridgeWellington Central M50-59M 22:02.1+6:15.6+39.68%71.59%7.28%5.71%
52297Jordan CollinsMornington M30-39M 22:02.2+6:15.7+39.69%71.59%7.28%5.71%
53184Ben Currante Aro M20-29M 22:04.5+6:18.0+39.94%71.46%7.11%5.54%
54821Tom RobinsonBerhampore M20-29M 22:06.9+6:20.4+40.19%71.33%6.95%5.37%
55719Sam GwynnMelrose M30-39M 22:07.1+6:20.6+40.21%71.32%6.93%5.36%
56203Timon WalkeyWellington M30-39M 22:09.4+6:22.9+40.45%71.20%6.77%5.19%
5757Simon BidwellMount Cook M40-49M 22:16.1+6:29.6+41.16%70.84%6.30%4.71%
58622James TurnerHighbury M50-59M 22:25.5+6:39.0+42.16%70.35%5.64%4.04%
59278Ben MorrowMount Victoria M20-29M 22:33.6+6:47.1+43.01%69.92%5.07%3.47%
60411Micael ArcherWellington M30-39M 22:50.7+7:04.2+44.82%69.05%3.87%2.25%
61579Sam TurnerMount Cook M30-39M 22:51.4+7:04.9+44.89%69.02%3.83%2.20%
62805Robert PattersonWellington M20-29M 22:51.5+7:05.0+44.90%69.01%3.82%2.19%
632Chris JamesHataitai M30-39M 22:53.9+7:07.4+45.16%68.89%3.65%2.02%
64305Ming Shang NgWellington M20-29M 22:58.8+7:12.3+45.67%68.65%3.31%1.67%
6562James Kimte Aro M20-29M 22:59.4+7:12.9+45.74%68.62%3.26%1.63%
66860Kayvan BahreiniM30-39M 22:59.6+7:13.1+45.76%68.61%3.25%1.61%
6736Fred MwilaTawa M50-59M 23:04.5+7:18.0+46.28%68.36%2.91%1.26%
6858Michael O'Connorte Aro M30-39M 23:08.8+7:22.3+46.73%68.15%2.61%0.96%
69144Stephen BakerKhandallah M40-49M 23:13.0+7:26.5+47.17%67.95%2.31%0.66%
7013Sebastien BrachetWellington M30-39M 23:15.4+7:28.9+47.43%67.83%2.14%0.48%
71674Theo WallPorirua M00-09M 23:15.5+7:29.0+47.44%67.83%2.14%0.48%
72658Danny EyreKingston M30-39M 23:22.2+7:35.7+48.15%67.50%1.67%0.00%
73775Toby Aikman-NordonWellington M10-19M 23:36.4+7:49.9+49.65%66.82%0.67%-1.01%
74849Mark HerridgeNewtown M30-39M 23:39.0+7:52.5+49.92%66.70%0.49%-1.20%
75852Hamish McCawHataitai M50-59M 23:46.8+8:00.3+50.74%66.34%-0.06%-1.75%
76448David RileyKhandallah M30-39M 23:50.1+8:03.6+51.09%66.18%-0.29%-1.99%
77470Chris BaldasIsland Bay M30-39M 23:53.7+8:07.2+51.47%66.02%-0.54%-2.25%
7837Aaron GillKarori M40-49M 23:59.7+8:13.2+52.11%65.74%-0.96%-2.67%
79282Matt StansfieldThorndon M20-29M 24:05.3+8:18.8+52.70%65.49%-1.36%-3.07%
80851Jason LiThorndon M20-29M 24:05.8+8:19.3+52.75%65.47%-1.39%-3.11%
812344Jason Chengte Aro M30-39M 24:13.3+8:26.8+53.54%65.13%-1.92%-3.64%
82868Louis BarnettHataitai M10-19M 24:13.8+8:27.3+53.60%65.11%-1.95%-3.68%
83875Samuel PollockHataitai M10-19M 24:15.1+8:28.6+53.73%65.05%-2.04%-3.77%
8422Frank ColeBrooklyn M50-59M 24:18.8+8:32.3+54.13%64.88%-2.30%-4.04%
8579Matt ColesKelburn M50-59M 24:19.0+8:32.5+54.15%64.87%-2.32%-4.05%
862384Brent Golderte Aro M30-39M 24:22.7+8:36.2+54.54%64.71%-2.58%-4.31%
87240Jurgen BurgerM20-29M 24:30.1+8:43.6+55.32%64.38%-3.10%-4.84%
8868Chris LeeM30-39M 24:34.2+8:47.7+55.75%64.20%-3.38%-5.13%
89440Luca SansonBrooklyn M10-19M 24:34.3+8:47.8+55.76%64.20%-3.39%-5.14%
9084Tim BaileyNewtown M30-39M 24:36.1+8:49.6+55.95%64.12%-3.52%-5.27%
91272Frank GrieveAro Valley M30-39M 24:37.3+8:50.8+56.08%64.07%-3.60%-5.36%
9270Shinichi MuroyaKarori M50-59M 24:40.4+8:53.9+56.41%63.94%-3.82%-5.58%
93188Chris JenkinsonWellington Central M30-39M 24:41.0+8:54.5+56.47%63.91%-3.86%-5.62%
94518Warren KingThorndon M-unknownM 24:42.2+8:55.7+56.60%63.86%-3.94%-5.71%
95321Adam LawlorParaparaumu M30-39M 24:49.8+9:03.3+57.40%63.53%-4.48%-6.25%
96327Timothy YoungWellington M30-39M 24:54.7+9:08.2+57.92%63.32%-4.82%-6.60%
97800Matt ReidPinehaven M30-39M 24:57.1+9:10.6+58.17%63.22%-4.99%-6.77%
98198Justin YoungNewtown M30-39M 25:00.2+9:13.7+58.50%63.09%-5.21%-6.99%
9923Greg MaxtedPaparangi M30-39M 25:00.9+9:14.4+58.57%63.06%-5.26%-7.04%
100560Rob SansonBrooklyn M40-49M 25:12.8+9:26.3+59.83%62.57%-6.09%-7.89%
10118Adam BennettsAro Valley M40-49M 25:24.4+9:37.9+61.06%62.09%-6.90%-8.71%
102298Benjamin McKayMount Victoria M30-39M 25:29.4+9:42.9+61.58%61.89%-7.25%-9.07%
103548Samuel OldAro Valley M20-29M 25:30.5+9:44.0+61.70%61.84%-7.33%-9.15%
104904Saul ButlerKarori M50-59M 25:41.8+9:55.3+62.89%61.39%-8.12%-9.96%
105405Dennis HardieWilton M60-69M 25:47.4+10:00.9+63.49%61.17%-8.52%-10.36%
106866Steve KeatsBerhamphore M40-49M 25:55.9+10:09.4+64.38%60.83%-9.11%-10.96%
107907Mason LongdillPlimmerton M20-29M 26:04.5+10:18.0+65.29%60.50%-9.72%-11.57%
108255Nick WillmottNgaio M30-39M 26:17.4+10:30.9+66.66%60.00%-10.62%-12.49%
109643Phil GoodwinBrooklyn M50-59M 26:23.6+10:37.1+67.31%59.77%-11.06%-12.94%
11055Don McLaren-SmithKelburn M50-59M 26:26.7+10:40.2+67.64%59.65%-11.27%-13.16%
110903Elwin AlcazarMt Cook, Wellington M30-39M 26:26.7+10:40.2+67.64%59.65%-11.27%-13.16%
11230Jhowei Gomeste Aro M30-39M 26:30.4+10:43.9+68.03%59.51%-11.53%-13.42%
11372Sam OlivecronaMount Cook M20-29M 26:44.4+10:57.9+69.51%58.99%-12.51%-14.42%
114145Lawrence ChuNewtown M20-29M 26:48.9+11:02.4+69.98%58.83%-12.83%-14.74%
115878Gareth Hutchinsonseatoun M50-59M 26:49.5+11:03.0+70.05%58.81%-12.87%-14.78%
116760Gregor CosterKarori M70-79M 26:53.2+11:06.7+70.44%58.67%-13.13%-15.05%
1179Paul JohansonAro Valley M30-39M 26:56.2+11:09.7+70.76%58.56%-13.34%-15.26%
118882Peter RamagePetone M30-39M 27:12.8+11:26.3+72.51%57.97%-14.51%-16.45%
11939Kyle SchwartzIsland Bay M30-39M 27:22.0+11:35.5+73.48%57.64%-15.15%-17.10%
119524Leo BrowningAro Valley M20-29M 27:22.0+11:35.5+73.48%57.64%-15.15%-17.10%
121317Angus HawkinsIsland Bay M20-29M 27:27.0+11:40.5+74.01%57.47%-15.50%-17.46%
122681Dan PriceCrofton Downs M30-39M 27:34.6+11:48.1+74.81%57.20%-16.03%-18.00%
123727Colin RobinsonKelburn M-unknownM 27:39.4+11:52.9+75.32%57.04%-16.37%-18.34%
124685Ralph DickinsonWellington M60-69M 27:45.1+11:58.6+75.92%56.84%-16.77%-18.75%
125139Ryan McCarvillWellington M30-39M 27:58.1+12:11.6+77.30%56.40%-17.68%-19.68%
126897Isaac WallPorirua M10-19M 28:07.8+12:21.3+78.32%56.08%-18.36%-20.37%
127326Nick DavisBroadmeadows M30-39M 28:13.2+12:26.7+78.89%55.90%-18.74%-20.75%
128324Tim SwanM30-39M 28:20.9+12:34.4+79.70%55.65%-19.28%-21.30%
129280Ethan AbbeyRoseneath M30-39M 28:25.7+12:39.2+80.21%55.49%-19.62%-21.64%
13035Michael Sovikte Aro M50-59M 28:35.7+12:49.2+81.27%55.17%-20.32%-22.36%
131890Alan Vander molenM-unknownM 29:37.5+13:51.0+87.80%53.25%-24.65%-26.77%
132178Laurence FeehanKarori M60-69M 29:37.9+13:51.4+87.84%53.24%-24.68%-26.79%
133106Willie StephensEastbourne M30-39M 29:38.8+13:52.3+87.93%53.21%-24.74%-26.86%
134914Ketan PatelRoseneath M20-29M 29:57.7+14:11.2+89.93%52.65%-26.07%-28.21%
13531Bevan Wallacete Aro M60-69M 30:49.6+15:03.1+95.41%51.17%-29.71%-31.91%
136116David O'BrienHataitai M30-39M 31:06.7+15:20.2+97.22%50.70%-30.91%-33.13%
137508Paul JakobsPorirua M50-59M 31:14.1+15:27.6+98.00%50.50%-31.43%-33.65%
138867Keith VincentHavelock North M60-69M 31:34.5+15:48.0+100.16%49.96%-32.86%-35.11%
13977Don StevensNorthland M50-59M 32:15.9+16:29.4+104.53%48.89%-35.76%-38.06%
140915Jarem WylieM20-29M 34:25.5+18:39.0+118.23%45.82%-44.85%-47.30%
141774Matt TrumanKilbirnie M30-39M 35:27.5+19:41.0+124.78%44.49%-49.20%-51.73%
142902Jacob LeungWellington M00-09M 38:02.4+22:15.9+141.14%41.47%-60.06%-62.77%
143422Jason TaylorWellington CBD M50-59M 44:04.8+28:18.3+179.43%35.79%-85.48%-88.62%
  • 5km Run Male - M00-09
Place Bib Racer name Affiliation Category Gender Finish time
1674Theo WallPorirua M00-09M 23:15.5--100%24.11%24.11%
2902Jacob LeungWellington M00-09M 38:02.4+14:46.9+63.55%61.14%-24.11%-24.11%
  • 5km Run Male - M10-19
Place Bib Racer name Affiliation Category Gender Finish time
1885Jaspar OrtfeldNgaio M10-19M 16:37.0--100%27.02%31.42%
2225Bevan CoxHataitai M10-19M 17:58.9+1:21.9+8.21%92.41%21.03%25.79%
3775Toby Aikman-NordonWellington M10-19M 23:36.4+6:59.4+42.07%70.39%-3.68%2.57%
4868Louis BarnettHataitai M10-19M 24:13.8+7:36.8+45.82%68.58%-6.41%0.00%
5875Samuel PollockHataitai M10-19M 24:15.1+7:38.1+45.95%68.52%-6.51%-0.09%
6440Luca SansonBrooklyn M10-19M 24:34.3+7:57.3+47.87%67.63%-7.91%-1.41%
7897Isaac WallPorirua M10-19M 28:07.8+11:30.8+69.29%59.07%-23.54%-16.10%
  • 5km Run Male - M20-29
Place Bib Racer name Affiliation Category Gender Finish time
1876Bert PrendergastJohnsonville M20-29M 15:46.5--100%29.88%28.26%
2150Ben TwymanCrofton Downs M20-29M 15:49.4+0:02.9+0.31%99.69%29.67%28.04%
3590Charles WiseThorndon M20-29M 17:57.4+2:10.9+13.83%87.85%20.18%18.34%
4571Bram Parmentierte Aro M20-29M 18:05.4+2:18.9+14.68%87.20%19.59%17.73%
5443JOHN CREWEIsland Bay M20-29M 18:36.2+2:49.7+17.93%84.80%17.31%15.39%
6871Harry PolandKelburn M20-29M 19:15.8+3:29.3+22.11%81.89%14.37%12.39%
7815Lorcan ByrneM20-29M 19:23.9+3:37.4+22.97%81.32%13.77%11.78%
8147Jonathon JacksonWellington M20-29M 19:43.4+3:56.9+25.03%79.98%12.33%10.30%
926Andreas StockingerHataitai M20-29M 19:53.1+4:06.6+26.05%79.33%11.61%9.57%
10879Denny Adamson BarklaHataitai M20-29M 20:19.0+4:32.5+28.79%77.65%9.69%7.60%
1156Alistair CollowMount Victoria M20-29M 20:35.9+4:49.4+30.58%76.58%8.44%6.32%
12482Isaac Moffat-YoungWellington M20-29M 20:43.9+4:57.4+31.42%76.09%7.85%5.72%
13289Ronan McIlvennyNewtown M20-29M 21:04.2+5:17.7+33.57%74.87%6.34%4.18%
14582Rutger MaasdamNgaio M20-29M 21:13.3+5:26.8+34.53%74.33%5.67%3.49%
15909Phelim O'LearyHataitai M20-29M 21:24.9+5:38.4+35.75%73.66%4.81%2.61%
16863Roy McKeeThorndon M20-29M 21:43.0+5:56.5+37.67%72.64%3.47%1.24%
17454Ben DaviesWellington M20-29M 21:43.5+5:57.0+37.72%72.61%3.43%1.20%
18101Jarred CampbellWellington M20-29M 21:59.0+6:12.5+39.36%71.76%2.28%0.02%
19347Joel MacManusNewtown M20-29M 21:59.6+6:13.1+39.42%71.73%2.24%-0.02%
20184Ben Currante Aro M20-29M 22:04.5+6:18.0+39.94%71.46%1.88%-0.39%
21821Tom RobinsonBerhampore M20-29M 22:06.9+6:20.4+40.19%71.33%1.70%-0.58%
22278Ben MorrowMount Victoria M20-29M 22:33.6+6:47.1+43.01%69.92%-0.28%-2.60%
23805Robert PattersonWellington M20-29M 22:51.5+7:05.0+44.90%69.01%-1.61%-3.96%
24305Ming Shang NgWellington M20-29M 22:58.8+7:12.3+45.67%68.65%-2.15%-4.51%
2562James Kimte Aro M20-29M 22:59.4+7:12.9+45.74%68.62%-2.19%-4.56%
26282Matt StansfieldThorndon M20-29M 24:05.3+8:18.8+52.70%65.49%-7.07%-9.55%
27851Jason LiThorndon M20-29M 24:05.8+8:19.3+52.75%65.47%-7.11%-9.59%
28240Jurgen BurgerM20-29M 24:30.1+8:43.6+55.32%64.38%-8.91%-11.43%
29548Samuel OldAro Valley M20-29M 25:30.5+9:44.0+61.70%61.84%-13.38%-16.01%
30907Mason LongdillPlimmerton M20-29M 26:04.5+10:18.0+65.29%60.50%-15.90%-18.59%
3172Sam OlivecronaMount Cook M20-29M 26:44.4+10:57.9+69.51%58.99%-18.86%-21.61%
32145Lawrence ChuNewtown M20-29M 26:48.9+11:02.4+69.98%58.83%-19.19%-21.95%
33524Leo BrowningAro Valley M20-29M 27:22.0+11:35.5+73.48%57.64%-21.65%-24.46%
34317Angus HawkinsIsland Bay M20-29M 27:27.0+11:40.5+74.01%57.47%-22.02%-24.84%
35914Ketan PatelRoseneath M20-29M 29:57.7+14:11.2+89.93%52.65%-33.18%-36.26%
36915Jarem WylieM20-29M 34:25.5+18:39.0+118.23%45.82%-53.02%-56.56%
  • 5km Run Male - M30-39
Place Bib Racer name Affiliation Category Gender Finish time
148Walter SomervilleMount Victoria M30-39M 17:44.7--100%25.29%25.55%
2264Dion YiwHataitai M30-39M 17:49.6+0:04.9+0.46%99.54%24.95%25.21%
3910Axel TieKarori M30-39M 17:58.7+0:14.0+1.31%98.70%24.31%24.57%
4856George WhitworthWellington M30-39M 18:46.7+1:02.0+5.82%94.50%20.94%21.22%
5584Matthew CryerKarori M30-39M 18:54.1+1:09.4+6.52%93.88%20.42%20.70%
6358Hartley Malcolm-StevensBrooklyn M30-39M 18:59.0+1:14.3+6.98%93.48%20.08%20.36%
7356Richard ClaesKelburn M30-39M 19:13.1+1:28.4+8.30%92.33%19.09%19.37%
8912Will CritchlowKelburn M30-39M 19:31.0+1:46.3+9.98%90.92%17.83%18.12%
9248Neil LynchOriedntal Bay M30-39M 19:36.6+1:51.9+10.51%90.49%17.44%17.73%
10239Matthew WilsonWellington Central M30-39M 19:53.3+2:08.6+12.08%89.22%16.27%16.56%
1149Brendan HaileHataitai M30-39M 19:58.9+2:14.2+12.60%88.81%15.88%16.17%
12820Hooman BahreiniMelrose M30-39M 20:06.2+2:21.5+13.29%88.27%15.36%15.66%
13610Harry BarnesTawa M30-39M 20:08.0+2:23.3+13.46%88.14%15.24%15.53%
14581Iain ShawNgaio M30-39M 21:14.4+3:29.7+19.70%83.55%10.58%10.89%
1563Karl JacksonSouthgate M30-39M 21:19.0+3:34.3+20.13%83.24%10.26%10.57%
16364Simon TemplemanNgaio M30-39M 21:20.0+3:35.3+20.22%83.18%10.19%10.50%
17297Jordan CollinsMornington M30-39M 22:02.2+4:17.5+24.19%80.52%7.23%7.54%
18719Sam GwynnMelrose M30-39M 22:07.1+4:22.4+24.65%80.23%6.88%7.20%
19203Timon WalkeyWellington M30-39M 22:09.4+4:24.7+24.86%80.09%6.72%7.04%
20411Micael ArcherWellington M30-39M 22:50.7+5:06.0+28.74%77.68%3.82%4.15%
21579Sam TurnerMount Cook M30-39M 22:51.4+5:06.7+28.81%77.64%3.77%4.10%
222Chris JamesHataitai M30-39M 22:53.9+5:09.2+29.04%77.49%3.60%3.93%
23860Kayvan BahreiniM30-39M 22:59.6+5:14.9+29.58%77.17%3.20%3.53%
2458Michael O'Connorte Aro M30-39M 23:08.8+5:24.1+30.44%76.66%2.55%2.89%
2513Sebastien BrachetWellington M30-39M 23:15.4+5:30.7+31.06%76.30%2.09%2.43%
26658Danny EyreKingston M30-39M 23:22.2+5:37.5+31.70%75.93%1.61%1.95%
27849Mark HerridgeNewtown M30-39M 23:39.0+5:54.3+33.28%75.03%0.43%0.78%
28448David RileyKhandallah M30-39M 23:50.1+6:05.4+34.32%74.45%-0.35%0.00%
29470Chris BaldasIsland Bay M30-39M 23:53.7+6:09.0+34.66%74.26%-0.60%-0.25%
302344Jason Chengte Aro M30-39M 24:13.3+6:28.6+36.50%73.26%-1.97%-1.62%
312384Brent Golderte Aro M30-39M 24:22.7+6:38.0+37.38%72.79%-2.63%-2.28%
3268Chris LeeM30-39M 24:34.2+6:49.5+38.46%72.22%-3.44%-3.08%
3384Tim BaileyNewtown M30-39M 24:36.1+6:51.4+38.64%72.13%-3.57%-3.22%
34272Frank GrieveAro Valley M30-39M 24:37.3+6:52.6+38.75%72.07%-3.66%-3.30%
35188Chris JenkinsonWellington Central M30-39M 24:41.0+6:56.3+39.10%71.89%-3.92%-3.56%
36321Adam LawlorParaparaumu M30-39M 24:49.8+7:05.1+39.93%71.47%-4.53%-4.17%
37327Timothy YoungWellington M30-39M 24:54.7+7:10.0+40.39%71.23%-4.88%-4.52%
38800Matt ReidPinehaven M30-39M 24:57.1+7:12.4+40.61%71.12%-5.05%-4.68%
39198Justin YoungNewtown M30-39M 25:00.2+7:15.5+40.90%70.97%-5.26%-4.90%
4023Greg MaxtedPaparangi M30-39M 25:00.9+7:16.2+40.97%70.94%-5.31%-4.95%
41298Benjamin McKayMount Victoria M30-39M 25:29.4+7:44.7+43.65%69.62%-7.31%-6.94%
42255Nick WillmottNgaio M30-39M 26:17.4+8:32.7+48.15%67.50%-10.68%-10.30%
43903Elwin AlcazarMt Cook, Wellington M30-39M 26:26.7+8:42.0+49.03%67.10%-11.33%-10.95%
4430Jhowei Gomeste Aro M30-39M 26:30.4+8:45.7+49.38%66.95%-11.59%-11.21%
459Paul JohansonAro Valley M30-39M 26:56.2+9:11.5+51.80%65.88%-13.40%-13.01%
46882Peter RamagePetone M30-39M 27:12.8+9:28.1+53.36%65.21%-14.57%-14.17%
4739Kyle SchwartzIsland Bay M30-39M 27:22.0+9:37.3+54.22%64.84%-15.21%-14.82%
48681Dan PriceCrofton Downs M30-39M 27:34.6+9:49.9+55.41%64.35%-16.10%-15.70%
49139Ryan McCarvillWellington M30-39M 27:58.1+10:13.4+57.61%63.45%-17.75%-17.34%
50326Nick DavisBroadmeadows M30-39M 28:13.2+10:28.5+59.03%62.88%-18.81%-18.40%
51324Tim SwanM30-39M 28:20.9+10:36.2+59.75%62.60%-19.35%-18.94%
52280Ethan AbbeyRoseneath M30-39M 28:25.7+10:41.0+60.20%62.42%-19.68%-19.27%
53106Willie StephensEastbourne M30-39M 29:38.8+11:54.1+67.07%59.85%-24.81%-24.38%
54116David O'BrienHataitai M30-39M 31:06.7+13:22.0+75.33%57.04%-30.98%-30.53%
55774Matt TrumanKilbirnie M30-39M 35:27.5+17:42.8+99.82%50.04%-49.28%-48.77%
  • 5km Run Male - M40-49
Place Bib Racer name Affiliation Category Gender Finish time
1385Paul BarwickMiramar M40-49M 18:12.8--100%15.64%8.90%
214James Gowerseatoun M40-49M 18:31.9+0:19.1+1.75%98.28%14.16%7.30%
3870Mike CousinsNormandale M40-49M 18:35.5+0:22.7+2.08%97.97%13.89%7.00%
4254Nick PerryKarori M40-49M 19:21.9+1:09.1+6.32%94.05%10.30%3.13%
5318Matt VeldeKingston M40-49M 19:57.1+1:44.3+9.54%91.29%7.59%0.20%
66Jamie Te Hiwite Aro M40-49M 19:59.4+1:46.6+9.75%91.11%7.41%0.01%
7231Wayne PatrickHighbury M40-49M 19:59.5+1:46.7+9.76%91.10%7.40%0.00%
857Simon BidwellMount Cook M40-49M 22:16.1+4:03.3+22.26%81.79%-3.14%-11.39%
9144Stephen BakerKhandallah M40-49M 23:13.0+5:00.2+27.47%78.45%-7.54%-16.13%
1037Aaron GillKarori M40-49M 23:59.7+5:46.9+31.74%75.90%-11.14%-20.03%
11560Rob SansonBrooklyn M40-49M 25:12.8+7:00.0+38.43%72.24%-16.78%-26.12%
1218Adam BennettsAro Valley M40-49M 25:24.4+7:11.6+39.49%71.69%-17.68%-27.09%
13866Steve KeatsBerhamphore M40-49M 25:55.9+7:43.1+42.38%70.24%-20.11%-29.71%
  • 5km Run Male - M50-59
Place Bib Racer name Affiliation Category Gender Finish time
1893Giles PearsonThorndon M50-59M 19:28.1--100%25.71%21.10%
2676Phil WallPorirua M50-59M 19:51.3+0:23.2+1.99%98.05%24.23%19.53%
378Antony PaltridgeWellington Central M50-59M 22:02.1+2:34.0+13.18%88.35%15.91%10.69%
4622James TurnerHighbury M50-59M 22:25.5+2:57.4+15.19%86.82%14.42%9.11%
536Fred MwilaTawa M50-59M 23:04.5+3:36.4+18.53%84.37%11.94%6.48%
6852Hamish McCawHataitai M50-59M 23:46.8+4:18.7+22.15%81.87%9.25%3.62%
722Frank ColeBrooklyn M50-59M 24:18.8+4:50.7+24.89%80.07%7.22%1.46%
879Matt ColesKelburn M50-59M 24:19.0+4:50.9+24.90%80.06%7.20%1.45%
970Shinichi MuroyaKarori M50-59M 24:40.4+5:12.3+26.74%78.90%5.84%0.00%
10904Saul ButlerKarori M50-59M 25:41.8+6:13.7+31.99%75.76%1.94%-4.15%
11643Phil GoodwinBrooklyn M50-59M 26:23.6+6:55.5+35.57%73.76%-0.72%-6.97%
1255Don McLaren-SmithKelburn M50-59M 26:26.7+6:58.6+35.84%73.62%-0.92%-7.18%
13878Gareth Hutchinsonseatoun M50-59M 26:49.5+7:21.4+37.79%72.58%-2.37%-8.72%
1435Michael Sovikte Aro M50-59M 28:35.7+9:07.6+46.88%68.08%-9.12%-15.89%
15508Paul JakobsPorirua M50-59M 31:14.1+11:46.0+60.44%62.33%-19.20%-26.59%
1677Don StevensNorthland M50-59M 32:15.9+12:47.8+65.73%60.34%-23.13%-30.77%
17422Jason TaylorWellington CBD M50-59M 44:04.8+24:36.7+126.42%44.17%-68.22%-78.65%
  • 5km Run Male - M60-69
Place Bib Racer name Affiliation Category Gender Finish time
1405Dennis HardieWilton M60-69M 25:47.4--100%11.42%12.96%
2685Ralph DickinsonWellington M60-69M 27:45.1+1:57.7+7.61%92.93%4.68%6.34%
3178Laurence FeehanKarori M60-69M 29:37.9+3:50.5+14.90%87.04%-1.77%0.00%
431Bevan Wallacete Aro M60-69M 30:49.6+5:02.2+19.53%83.66%-5.88%-4.03%
5867Keith VincentHavelock North M60-69M 31:34.5+5:47.1+22.43%81.68%-8.45%-6.56%
  • 5km Run Male - M70-79
Place Bib Racer name Affiliation Category Gender Finish time
1760Gregor CosterKarori M70-79M 26:53.2--100%0.00%0.00%
  • 5km Run Male - M-unknown
Place Bib Racer name Affiliation Category Gender Finish time
1182Alex BroughWellington M-unknownM 19:47.6--100%14.96%6.14%
21406Bill WangM-unknownM 19:54.5+0:06.9+0.58%99.42%14.46%5.60%
3731Mal VirideWellington M-unknownM 20:08.6+0:21.0+1.77%98.26%13.45%4.48%
4728Tawhai MossEpuni M-unknownM 21:05.3+1:17.7+6.54%93.86%9.39%0.00%
5518Warren KingThorndon M-unknownM 24:42.2+4:54.6+24.81%80.12%-6.14%-17.14%
6727Colin RobinsonKelburn M-unknownM 27:39.4+7:51.8+39.73%71.57%-18.83%-31.15%
7890Alan Vander molenM-unknownM 29:37.5+9:49.9+49.67%66.81%-27.29%-40.48%
  • 5km Run Female/Male - Overall
Place Bib Racer name Affiliation Category Gender Finish time
12000Pacer 20 minutesF/M00-09F/M 20:08.2--100%19.40%18.86%
22230Pacer 22 minutes, 30 secondsF/M00-09F/M 22:26.6+2:18.4+11.46%89.72%10.17%9.56%
32500Pacer 25 minutesF/M00-09F/M 24:49.0+4:40.8+23.24%81.14%0.67%0.00%
42730Pacer 27 minutes, 30 secondsF/M00-09F/M 27:34.0+7:25.8+36.90%73.05%-10.34%-11.08%
53000Pacer 30 minutesF/M00-09F/M 29:57.1+9:48.9+48.74%67.23%-19.89%-20.69%
  • 5km Run Female/Male - F/M00-09
Place Bib Racer name Affiliation Category Gender Finish time
12000Pacer 20 minutesF/M00-09F/M 20:08.2--100%19.40%18.86%
22230Pacer 22 minutes, 30 secondsF/M00-09F/M 22:26.6+2:18.4+11.46%89.72%10.17%9.56%
32500Pacer 25 minutesF/M00-09F/M 24:49.0+4:40.8+23.24%81.14%0.67%0.00%
42730Pacer 27 minutes, 30 secondsF/M00-09F/M 27:34.0+7:25.8+36.90%73.05%-10.34%-11.08%
53000Pacer 30 minutesF/M00-09F/M 29:57.1+9:48.9+48.74%67.23%-19.89%-20.69%
  • 5km Walk - Overall
Place Bib Racer name Affiliation Category Gender Finish time
1115Niamh O'RiordanHataitai F30-39F 36:56.5--100%7.73%2.20%
2249David SimM60-69M 36:59.2+0:02.7+0.12%99.88%7.62%2.08%
3132Ray MartenKarori M70-79M 37:34.4+0:37.9+1.71%98.32%6.15%0.52%
4512Craig AndersonBerhampore M50-59M 37:58.1+1:01.6+2.78%97.30%5.16%-0.52%
5118John HinesWellington M80-89M 42:29.4+5:32.9+15.02%86.94%-6.13%-12.49%
61Sue CuthbertsonNewlands F70-79F 48:15.3+11:18.8+30.62%76.56%-20.53%-27.76%
  • 5km Walk Female - Overall
Place Bib Racer name Affiliation Category Gender Finish time
1115Niamh O'RiordanHataitai F30-39F 36:56.5--100%13.28%13.28%
21Sue CuthbertsonNewlands F70-79F 48:15.3+11:18.8+30.62%76.56%-13.28%-13.28%
  • 5km Walk Female - F30-39
Place Bib Racer name Affiliation Category Gender Finish time
1115Niamh O'RiordanHataitai F30-39F 36:56.5--100%0.00%0.00%
  • 5km Walk Female - F70-79
Place Bib Racer name Affiliation Category Gender Finish time
11Sue CuthbertsonNewlands F70-79F 48:15.3--100%0.00%0.00%
  • 5km Walk Male - Overall
Place Bib Racer name Affiliation Category Gender Finish time
1249David SimM60-69M 36:59.2--100%4.56%2.08%
2132Ray MartenKarori M70-79M 37:34.4+0:35.2+1.59%98.44%3.05%0.52%
3512Craig AndersonBerhampore M50-59M 37:58.1+0:58.9+2.65%97.41%2.03%-0.52%
4118John HinesWellington M80-89M 42:29.4+5:30.2+14.88%87.05%-9.64%-12.49%
  • 5km Walk Male - M50-59
Place Bib Racer name Affiliation Category Gender Finish time
1512Craig AndersonBerhampore M50-59M 37:58.1--100%0.00%0.00%
  • 5km Walk Male - M60-69
Place Bib Racer name Affiliation Category Gender Finish time
1249David SimM60-69M 36:59.2--100%0.00%0.00%
  • 5km Walk Male - M70-79
Place Bib Racer name Affiliation Category Gender Finish time
1132Ray MartenKarori M70-79M 37:34.4--100%0.00%0.00%
  • 5km Walk Male - M80-89
Place Bib Racer name Affiliation Category Gender